METAR Analyzer

一覧表示

Hello, Guest. (Login)

RJOA/HIJ  -  広島

観測日時
2021-01-27 00:00 (UTC) (54分前)
気温
9
露点
5
湿数
4
相対湿度
76%
QNH
1017hPa
推定現地気圧
977.7hPa
推定海面気圧
1017.5hPa
体感温度
3.2
(無風時)
11.9
HI
7.9
気温前日比
+2
体感温度前日比
+7.2
HI前日比
+2
水平視程
>10000m
鉛直視程
データなし
雲底高度
No dense clouds
V/I
VMC (VFR)
RVR
No RVR data
卓越風
3kt from 20° (330° ~ 80°)
ガスト
No gust
降水
報告なし
その他の天気
報告なし
少しの雲 @ 1500ft AGL / 散在する雲 @ 2500ft AGL

RJOA 270000Z 02003KT 330V080 9999 FEW015 SCT025 09/05 Q1017

RJOB/OKJ  -  岡山

観測日時
2021-01-27 00:00 (UTC) (54分前)
気温
9
露点
5
湿数
4
相対湿度
76%
QNH
1017hPa
推定現地気圧
988.5hPa
推定海面気圧
1017.4hPa
体感温度
3.2
(無風時)
11.9
HI
7.9
気温前日比
+2
体感温度前日比
+7.2
HI前日比
+2
水平視程
>10000m
鉛直視程
データなし
雲底高度
3500ft AGL
V/I
VMC (VFR)
RVR
No RVR data
卓越風
3kt from 320° (260° ~ 30°)
ガスト
No gust
降水
報告なし
その他の天気
報告なし
少しの雲 @ 2000ft AGL / 隙間のある雲 @ 3500ft AGL

RJOB 270000Z 32003KT 260V030 9999 FEW020 BKN035 09/05 Q1017

RJOR/TTJ  -  鳥取

観測日時
2021-01-27 00:00 (UTC) (54分前)
気温
11
露点
5
湿数
6
相対湿度
66.5%
QNH
1018hPa
推定現地気圧
1016.2hPa
推定海面気圧
1018.0hPa
体感温度
-1.4
(無風時)
13.4
HI
9.9
気温前日比
+1
体感温度前日比
-4.7
HI前日比
+1
水平視程
>10000m
鉛直視程
データなし
雲底高度
5000ft AGL
V/I
VMC (VFR)
RVR
No RVR data
卓越風
18kt from 340°
ガスト
No gust
降水
報告なし
その他の天気
報告なし
少しの雲 @ 3000ft AGL / 隙間のある雲 @ 5000ft AGL

RJOR 270000Z 34018KT 9999 FEW030 BKN050 11/05 Q1018

RJOH/YGJ  -  米子(美保基地)

観測日時
2021-01-27 00:00 (UTC) (54分前)
気温
10
露点
5
湿数
5
相対湿度
71%
QNH
1018hPa
推定現地気圧
1017.5hPa
推定海面気圧
1018.0hPa
体感温度
-1.4
(無風時)
12.7
HI
8.9
気温前日比
+2
体感温度前日比
-5
HI前日比
+1.9
水平視程
>10000m
鉛直視程
データなし
雲底高度
No dense clouds
V/I
VMC (VFR)
RVR
No RVR data
卓越風
12kt from 320°
ガスト
No gust
降水
報告なし
その他の天気
報告なし
少しの雲 @ 3000ft AGL / 散在する雲 @ 5000ft AGL

RJOH 270000Z 32012KT 9999 FEW030 SCT050 10/05 Q1018

RJOC/IZO  -  出雲

観測日時
2021-01-27 00:00 (UTC) (54分前)
気温
10
露点
5
湿数
5
相対湿度
71%
QNH
1019hPa
推定現地気圧
1018.8hPa
推定海面気圧
1019.0hPa
体感温度
-2.3
(無風時)
12.7
HI
8.9
気温前日比
+6
体感温度前日比
-1
HI前日比
+6
水平視程
>10000m
鉛直視程
データなし
雲底高度
4000ft AGL
V/I
VMC (VFR)
RVR
No RVR data
卓越風
15kt from 350°
ガスト
No gust
降水
報告なし
その他の天気
報告なし
少しの雲 @ 2000ft AGL / 散在する雲 @ 3000ft AGL / 隙間のある雲 @ 4000ft AGL

RJOC 270000Z 35015KT 9999 FEW020 SCT030 BKN040 10/05 Q1019

RJOW/IWJ  -  萩・石見

観測日時
2021-01-27 00:00 (UTC) (54分前)
気温
11
露点
6
湿数
5
相対湿度
71.2%
QNH
1019hPa
推定現地気圧
1012.5hPa
推定海面気圧
1019.1hPa
体感温度
-0.1
(無風時)
13.4
HI
10
気温前日比
+4
体感温度前日比
-4.8
HI前日比
+3.8
水平視程
>10000m
鉛直視程
データなし
雲底高度
No dense clouds
V/I
VMC (VFR)
RVR
No RVR data
卓越風
12kt from 20° (340° ~ 60°)
ガスト
No gust
降水
報告なし
その他の天気
報告なし
少しの雲 @ 2000ft AGL / 散在する雲 @ 3000ft AGL

RJOW 270000Z 02012KT 340V060 9999 FEW020 SCT030 11/06 Q1019

RJDC/UBJ  -  山口宇部

観測日時
2021-01-27 00:00 (UTC) (54分前)
気温
11
露点
7
湿数
4
相対湿度
76.3%
QNH
1018hPa
推定現地気圧
1017.4hPa
推定海面気圧
1018.0hPa
体感温度
3.3
(無風時)
13.5
HI
10.1
気温前日比
+1
体感温度前日比
+4.7
HI前日比
+0.8
水平視程
>10000m
鉛直視程
データなし
雲底高度
4500ft AGL
V/I
VMC (VFR)
RVR
No RVR data
卓越風
5kt from 240°
ガスト
No gust
降水
報告なし
その他の天気
報告なし
少しの雲 @ 2000ft AGL / 散在する雲 @ 3500ft AGL / 隙間のある雲 @ 4500ft AGL

RJDC 270000Z 24005KT 9999 FEW020 SCT035 BKN045 11/07 Q1018

RJOT/TAK  -  高松

観測日時
2021-01-27 00:00 (UTC) (54分前)
気温
10
露点
9
湿数
1
相対湿度
93.5%
QNH
1018hPa
推定現地気圧
995.9hPa
推定海面気圧
1018.3hPa
体感温度
2.6
(無風時)
12.6
HI
9.5
気温前日比
+4
体感温度前日比
+5.3
HI前日比
+4.2
水平視程
>10000m
鉛直視程
データなし
雲底高度
5000ft AGL
V/I
VMC (VFR)
RVR
No RVR data
卓越風
4kt from 270° (240° ~ 340°)
ガスト
No gust
降水
報告なし
その他の天気
報告なし
少しの雲 @ 1000ft AGL / 散在する雲 @ 3000ft AGL / 隙間のある雲 @ 5000ft AGL

RJOT 270000Z 27004KT 240V340 9999 FEW010 SCT030 BKN050 10/09 Q1018

RJOM/MYJ  -  松山

観測日時
2021-01-27 00:00 (UTC) (54分前)
気温
12
露点
7
湿数
5
相対湿度
71.4%
QNH
1017hPa
推定現地気圧
1016.5hPa
推定海面気圧
1017.0hPa
体感温度
0.9
(無風時)
14.2
HI
11.1
気温前日比
+4
体感温度前日比
-0.8
HI前日比
+4
水平視程
>10000m
鉛直視程
データなし
雲底高度
No dense clouds
V/I
VMC (VFR)
RVR
No RVR data
卓越風
13kt from 30°
ガスト
No gust
降水
報告なし
その他の天気
報告なし
少しの雲 @ 1500ft AGL / 散在する雲 @ 5000ft AGL

RJOM 270000Z 03013KT 9999 FEW015 SCT050 12/07 Q1017

RJOK/KCZ  -  高知

観測日時
2021-01-27 00:00 (UTC) (54分前)
気温
13
露点
7
湿数
6
相対湿度
66.9%
QNH
1014hPa
推定現地気圧
1012.9hPa
推定海面気圧
1014.0hPa
体感温度
1.6
(無風時)
15
HI
12.1
気温前日比
+1
体感温度前日比
-1.7
HI前日比
+1
水平視程
>10000m
鉛直視程
データなし
雲底高度
8000ft AGL
V/I
VMC (VFR)
RVR
No RVR data
卓越風
16kt from 350°
ガスト
No gust
降水
報告なし
その他の天気
報告なし
少しの雲 @ 2500ft AGL / 隙間のある雲 @ 8000ft AGL

RJOK 270000Z 35016KT 9999 FEW025 BKN080 13/07 Q1014

RJOS/TKS  -  徳島

観測日時
2021-01-27 00:00 (UTC) (54分前)
気温
12
露点
7
湿数
5
相対湿度
71.4%
QNH
1016hPa
推定現地気圧
1014.7hPa
推定海面気圧
1016.0hPa
体感温度
0.6
(無風時)
14.2
HI
11.1
気温前日比
+6
体感温度前日比
+5.6
HI前日比
+6.2
水平視程
>10000m
鉛直視程
データなし
雲底高度
13000ft AGL
V/I
VMC (VFR)
RVR
No RVR data
卓越風
14kt from 340°
ガスト
No gust
降水
報告なし
その他の天気
報告なし
少しの雲 @ 1500ft AGL / 散在する雲 @ 5000ft AGL / 隙間のある雲 @ 13000ft AGL

RJOS 270000Z 34014KT 9999 FEW015 SCT050 BKN130 12/07 Q1016

189.6msec